createdAt,value
2023-01-19T00:00:15.860Z,36.15
2023-01-19T00:02:44.373Z,31.90
2023-01-19T00:05:11.589Z,30.23
2023-01-19T00:07:38.060Z,33.15
2023-01-19T00:12:31.269Z,32.20
2023-01-19T00:14:58.836Z,28.65
2023-01-19T00:17:25.330Z,31.45
2023-01-19T00:22:18.209Z,29.27
2023-01-19T00:24:46.853Z,33.13
2023-01-19T00:27:13.325Z,29.98
2023-01-19T00:32:06.939Z,32.72
2023-01-19T00:34:49.564Z,30.13
2023-01-19T00:37:17.078Z,34.53
2023-01-19T00:39:43.836Z,33.22
2023-01-19T00:42:32.458Z,33.72
2023-01-19T00:44:58.867Z,29.15
2023-01-19T00:49:52.248Z,34.63
2023-01-19T00:52:19.226Z,31.88
2023-01-19T00:54:45.681Z,34.88
2023-01-19T00:59:39.067Z,35.93
2023-01-19T01:02:05.620Z,30.55
2023-01-19T01:04:32.414Z,30.33
2023-01-19T01:06:58.839Z,30.52
2023-01-19T01:11:51.922Z,26.58
2023-01-19T01:14:19.338Z,28.80
2023-01-19T01:16:47.004Z,30.08
2023-01-19T01:19:13.463Z,23.40
2023-01-19T01:24:06.897Z,23.95
2023-01-19T01:26:33.415Z,28.15
2023-01-19T01:28:59.966Z,26.48
2023-01-19T01:31:26.460Z,25.50
2023-01-19T01:36:19.253Z,26.50
2023-01-19T01:41:12.702Z,23.88
2023-01-19T01:44:02.007Z,27.50
2023-01-19T01:46:31.312Z,23.33
2023-01-19T01:49:03.682Z,32.38
2023-01-19T01:51:43.787Z,24.80
2023-01-19T01:54:28.921Z,21.45
2023-01-19T01:57:01.790Z,26.85
2023-01-19T01:59:39.220Z,22.50
2023-01-19T02:02:30.064Z,24.25
2023-01-19T02:05:04.122Z,25.90
2023-01-19T02:08:01.833Z,21.90
2023-01-19T02:10:46.906Z,19.00
2023-01-19T02:13:22.714Z,34.33
2023-01-19T02:15:51.809Z,30.20
2023-01-19T02:18:21.220Z,23.33
2023-01-19T02:21:10.831Z,22.23
2023-01-19T02:23:46.343Z,21.40
2023-01-19T02:26:25.004Z,20.52
2023-01-19T02:29:04.231Z,23.83
2023-01-19T02:31:32.909Z,26.83
2023-01-19T02:34:01.942Z,24.92
2023-01-19T02:36:52.695Z,25.20
2023-01-19T02:39:25.760Z,23.52
2023-01-19T02:41:57.245Z,25.48
2023-01-19T02:44:27.729Z,21.77
2023-01-19T02:46:54.896Z,27.25
2023-01-19T02:49:21.434Z,32.47
2023-01-19T02:51:48.566Z,25.67
2023-01-19T02:54:50.009Z,26.10
2023-01-19T02:57:25.639Z,25.02
2023-01-19T03:00:08.107Z,24.67
2023-01-19T03:02:44.071Z,27.02
2023-01-19T03:05:33.571Z,24.60
2023-01-19T03:08:12.351Z,31.17
2023-01-19T03:10:48.380Z,22.90
2023-01-19T03:13:47.022Z,27.40
2023-01-19T03:16:29.745Z,34.40
2023-01-19T03:19:04.043Z,28.77
2023-01-19T03:21:34.229Z,32.17
2023-01-19T03:24:05.556Z,33.08
2023-01-19T03:26:37.521Z,34.67
2023-01-19T03:29:07.472Z,29.38
2023-01-19T03:31:34.869Z,31.50
2023-01-19T03:34:06.825Z,31.65
2023-01-19T03:36:38.187Z,25.00
2023-01-19T03:39:07.822Z,29.75
2023-01-19T03:41:36.726Z,29.80
2023-01-19T03:44:05.554Z,30.60
2023-01-19T03:46:33.016Z,29.58
2023-01-19T03:49:00.216Z,30.48
2023-01-19T03:51:27.193Z,32.55
2023-01-19T03:53:53.631Z,29.30
2023-01-19T03:58:48.804Z,27.00
2023-01-19T04:01:16.548Z,28.38
2023-01-19T04:03:43.153Z,29.65
2023-01-19T04:06:10.547Z,23.80
2023-01-19T04:08:37.090Z,35.70
2023-01-19T04:11:03.688Z,28.75
2023-01-19T04:13:30.509Z,35.05
2023-01-19T04:16:04.431Z,32.08
2023-01-19T04:18:33.911Z,28.08
2023-01-19T04:21:06.223Z,34.38
2023-01-19T04:23:33.757Z,34.28
2023-01-19T04:26:03.179Z,32.45
2023-01-19T04:28:29.899Z,30.75
2023-01-19T04:30:56.897Z,30.13
2023-01-19T04:33:24.182Z,34.67
2023-01-19T04:35:53.576Z,31.00
2023-01-19T04:38:21.047Z,34.03
2023-01-19T04:40:49.938Z,26.02
2023-01-19T04:43:17.255Z,32.60
2023-01-19T04:45:46.609Z,33.75
2023-01-19T04:48:14.035Z,31.67
2023-01-19T04:50:41.552Z,29.70
2023-01-19T04:53:08.491Z,33.85
2023-01-19T04:55:35.162Z,33.85
2023-01-19T04:58:01.672Z,34.80
2023-01-19T05:00:28.192Z,34.53
2023-01-19T05:02:54.857Z,33.67
2023-01-19T05:05:21.684Z,33.85
2023-01-19T05:07:48.145Z,39.10
2023-01-19T05:12:44.293Z,33.13
2023-01-19T05:15:11.254Z,34.20
2023-01-19T05:17:38.263Z,33.92
2023-01-19T05:20:05.621Z,31.05
2023-01-19T05:22:32.214Z,31.13
2023-01-19T05:24:58.693Z,40.50
2023-01-19T05:27:25.116Z,34.40
2023-01-19T05:32:19.204Z,31.40
2023-01-19T05:34:45.767Z,30.00
2023-01-19T05:39:38.591Z,35.00
2023-01-19T05:44:31.474Z,33.45
2023-01-19T05:49:24.313Z,36.10
2023-01-19T05:54:17.304Z,31.00
2023-01-19T05:56:43.928Z,34.45
2023-01-19T05:59:10.939Z,37.35
2023-01-19T06:01:39.923Z,33.85
2023-01-19T06:04:11.281Z,41.33
2023-01-19T06:06:40.984Z,36.55
2023-01-19T06:09:07.965Z,41.75
2023-01-19T06:11:34.364Z,37.40
2023-01-19T06:16:34.894Z,32.03
2023-01-19T06:19:01.375Z,40.45
2023-01-19T06:23:58.264Z,34.38
2023-01-19T06:26:26.211Z,33.47
2023-01-19T06:28:52.916Z,42.00
2023-01-19T06:31:19.560Z,38.50
2023-01-19T06:33:46.354Z,31.27
2023-01-19T06:36:12.871Z,37.55
2023-01-19T06:38:39.298Z,39.65
2023-01-19T06:43:32.516Z,35.65
2023-01-19T06:46:00.528Z,34.33
2023-01-19T06:48:27.356Z,41.38
2023-01-19T06:50:53.800Z,40.47
2023-01-19T06:55:48.843Z,31.88
2023-01-19T06:58:15.474Z,36.55
2023-01-19T07:00:42.975Z,36.58
2023-01-19T07:03:18.921Z,34.88
2023-01-19T07:05:45.413Z,35.63
2023-01-19T07:11:24.747Z,34.60
2023-01-19T07:13:25.245Z,30.60
2023-01-19T07:15:51.848Z,31.00
2023-01-19T07:18:18.362Z,34.78
2023-01-19T07:20:46.833Z,31.70
2023-01-19T07:23:13.321Z,38.67
2023-01-19T07:28:07.152Z,30.38
2023-01-19T07:30:33.803Z,28.00
2023-01-19T07:33:00.880Z,35.92
2023-01-19T07:35:29.656Z,33.45
2023-01-19T07:37:56.308Z,38.85
2023-01-19T07:40:24.144Z,35.58
2023-01-19T07:42:52.130Z,29.02
2023-01-19T07:45:39.251Z,33.05
2023-01-19T07:55:26.782Z,31.55
2023-01-19T07:58:02.545Z,29.42
2023-01-19T08:00:31.882Z,34.33
2023-01-19T08:03:03.136Z,32.92
2023-01-19T08:05:35.810Z,36.53
2023-01-19T08:08:11.663Z,33.25
2023-01-19T08:10:38.989Z,30.85
2023-01-19T08:13:18.221Z,29.83
2023-01-19T08:15:45.268Z,27.45
2023-01-19T08:18:13.291Z,31.27
2023-01-19T08:20:39.988Z,24.95
2023-01-19T08:23:06.714Z,31.60
2023-01-19T08:33:17.716Z,26.95
2023-01-19T08:43:30.538Z,23.75
2023-01-19T08:45:57.292Z,27.38
2023-01-19T08:48:24.534Z,30.17
2023-01-19T08:50:52.584Z,33.55
2023-01-19T08:53:21.245Z,30.10
2023-01-19T08:56:20.816Z,27.30
2023-01-19T08:59:08.679Z,28.50
2023-01-19T09:01:38.851Z,22.77
2023-01-19T09:04:08.001Z,25.70
2023-01-19T09:06:36.613Z,25.58
2023-01-19T09:09:03.909Z,30.52
2023-01-19T09:11:31.584Z,28.10
2023-01-19T09:13:58.278Z,29.98
2023-01-19T09:16:27.212Z,26.77
2023-01-19T09:18:54.439Z,26.05
2023-01-19T09:21:21.372Z,26.52
2023-01-19T09:23:49.320Z,31.98
2023-01-19T09:26:16.714Z,27.45
2023-01-19T09:28:46.601Z,20.50
2023-01-19T09:31:15.589Z,21.52
2023-01-19T09:35:30.917Z,23.17
2023-01-19T09:44:23.159Z,28.02
2023-01-19T09:46:50.149Z,22.30
2023-01-19T09:49:46.893Z,28.50
2023-01-19T09:52:32.450Z,23.70
2023-01-19T09:55:01.601Z,21.38
2023-01-19T09:57:43.655Z,22.10
2023-01-19T10:00:16.924Z,17.42
2023-01-19T10:02:58.131Z,21.50
2023-01-19T10:05:29.225Z,22.35
2023-01-19T10:08:15.302Z,18.05
2023-01-19T10:10:48.202Z,21.80
2023-01-19T10:13:49.209Z,19.90
2023-01-19T10:16:45.494Z,18.48
2023-01-19T10:19:26.056Z,27.17
2023-01-19T10:21:55.340Z,22.00
2023-01-19T10:24:33.207Z,20.58
2023-01-19T10:27:00.953Z,17.30
2023-01-19T10:29:37.758Z,18.13
2023-01-19T10:32:13.882Z,25.98
2023-01-19T10:34:41.704Z,13.27
2023-01-19T10:37:21.624Z,17.17
2023-01-19T10:40:02.350Z,17.52
2023-01-19T10:42:30.280Z,17.75
2023-01-19T10:44:59.889Z,21.70
2023-01-19T10:47:49.596Z,16.85
2023-01-19T10:50:37.290Z,22.75
2023-01-19T10:53:08.075Z,17.75
2023-01-19T10:55:43.767Z,22.48
2023-01-19T10:58:35.321Z,19.05
2023-01-19T11:01:28.393Z,18.30
2023-01-19T11:03:57.271Z,13.65
2023-01-19T11:09:21.772Z,20.10
2023-01-19T11:11:56.344Z,20.35
2023-01-19T11:14:25.364Z,22.13
2023-01-19T11:16:58.768Z,16.20
2023-01-19T11:19:31.650Z,15.90
2023-01-19T11:22:33.046Z,15.07
2023-01-19T11:25:05.076Z,18.20
2023-01-19T11:27:36.708Z,17.95
2023-01-19T11:30:09.946Z,18.25
2023-01-19T11:32:41.586Z,16.00
2023-01-19T11:35:34.485Z,27.45
2023-01-19T11:38:22.911Z,20.92
2023-01-19T11:40:56.074Z,17.45
2023-01-19T11:43:31.814Z,17.65
2023-01-19T11:46:00.672Z,16.92
2023-01-19T11:48:33.942Z,14.25
2023-01-19T11:51:04.582Z,19.65
2023-01-19T11:53:34.277Z,33.22
2023-01-19T11:56:12.125Z,15.00
2023-01-19T11:58:41.487Z,20.40
2023-01-19T12:01:16.728Z,17.88
2023-01-19T12:03:54.709Z,16.38
2023-01-19T12:06:30.080Z,17.25
2023-01-19T12:09:11.732Z,20.92
2023-01-19T12:11:45.771Z,19.75
2023-01-19T12:14:27.132Z,18.58
2023-01-19T12:16:59.915Z,20.13
2023-01-19T12:19:51.566Z,16.40
2023-01-19T12:22:21.112Z,17.80
2023-01-19T12:24:52.111Z,17.02
2023-01-19T12:27:36.780Z,23.50
2023-01-19T12:30:04.135Z,17.30
2023-01-19T12:32:36.960Z,16.33
2023-01-19T12:35:03.625Z,20.35
2023-01-19T12:37:41.794Z,17.15
2023-01-19T12:40:31.204Z,18.02
2023-01-19T12:43:02.212Z,17.10
2023-01-19T12:45:38.087Z,19.48
2023-01-19T12:48:06.933Z,19.50
2023-01-19T12:50:38.116Z,20.63
2023-01-19T12:53:15.730Z,16.23
2023-01-19T12:55:46.872Z,21.17
2023-01-19T12:58:47.310Z,17.77
2023-01-19T13:01:21.180Z,16.23
2023-01-19T13:04:23.139Z,16.02
2023-01-19T13:06:49.548Z,18.13
2023-01-19T13:09:29.942Z,17.65
2023-01-19T13:12:14.790Z,15.75
2023-01-19T13:14:43.206Z,16.52
2023-01-19T13:17:32.198Z,22.95
2023-01-19T13:20:22.927Z,13.57
2023-01-19T13:23:24.993Z,17.40
2023-01-19T13:26:05.448Z,21.15
2023-01-19T13:28:39.514Z,13.93
2023-01-19T13:31:07.138Z,15.55
2023-01-19T13:34:04.177Z,20.13
2023-01-19T13:36:33.625Z,19.38
2023-01-19T13:39:03.708Z,24.02
2023-01-19T13:41:36.550Z,15.00
2023-01-19T13:44:25.831Z,15.57
2023-01-19T13:46:53.969Z,19.17
2023-01-19T13:49:36.282Z,16.10
2023-01-19T13:52:23.304Z,15.77
2023-01-19T13:54:55.044Z,15.80
2023-01-19T13:57:33.041Z,14.55
2023-01-19T14:00:09.745Z,15.25
2023-01-19T14:02:36.675Z,18.55
2023-01-19T14:05:23.816Z,13.98
2023-01-19T14:08:05.384Z,17.42
2023-01-19T14:10:33.753Z,14.88
2023-01-19T14:13:05.695Z,21.05
2023-01-19T14:15:48.106Z,16.30
2023-01-19T14:18:22.059Z,22.27
2023-01-19T14:21:22.225Z,15.10
2023-01-19T14:35:51.436Z,20.15
2023-01-19T15:14:57.840Z,22.67
2023-01-19T15:19:54.971Z,26.77
2023-01-19T15:22:22.788Z,22.20
2023-01-19T15:24:49.851Z,26.98
2023-01-19T15:27:17.039Z,25.00
2023-01-19T15:29:45.574Z,23.38
2023-01-19T15:32:53.220Z,21.48
2023-01-19T15:35:52.170Z,23.42
2023-01-19T15:38:38.462Z,26.67
2023-01-19T16:04:00.104Z,23.80
2023-01-19T16:10:56.885Z,24.38
2023-01-19T16:17:07.249Z,29.02
2023-01-19T16:26:34.727Z,23.17
2023-01-19T16:34:43.442Z,23.80
2023-01-19T16:38:07.560Z,23.13
2023-01-19T16:40:30.604Z,25.95
2023-01-19T16:42:58.528Z,24.42
2023-01-19T16:45:25.012Z,23.70
2023-01-19T16:47:52.612Z,27.40
2023-01-19T16:50:27.237Z,28.63
2023-01-19T16:52:57.701Z,25.00
2023-01-19T16:55:24.359Z,29.45
2023-01-19T16:57:52.664Z,26.58
2023-01-19T17:00:19.340Z,29.08
2023-01-19T17:02:46.074Z,25.05
2023-01-19T17:05:12.993Z,28.15
2023-01-19T17:07:39.776Z,23.55
2023-01-19T17:12:36.792Z,36.38
2023-01-19T17:17:29.851Z,26.85
2023-01-19T17:22:50.701Z,27.27
2023-01-19T17:25:17.403Z,19.75
2023-01-19T17:27:44.042Z,30.77
2023-01-19T17:32:38.071Z,21.73
2023-01-19T17:37:36.268Z,23.63
2023-01-19T17:40:14.810Z,27.42
2023-01-19T17:42:42.133Z,21.98
2023-01-19T17:45:10.904Z,24.77
2023-01-19T17:47:38.559Z,24.23
2023-01-19T17:50:05.595Z,23.05
2023-01-19T17:52:34.565Z,26.52
2023-01-19T17:55:01.147Z,24.85
2023-01-19T17:59:54.681Z,32.80
2023-01-19T18:02:24.566Z,31.17
2023-01-19T18:04:54.965Z,25.15
2023-01-19T18:07:26.718Z,24.33
2023-01-19T18:09:56.020Z,23.42
2023-01-19T18:12:24.772Z,27.58
2023-01-19T18:14:51.796Z,21.30
2023-01-19T18:17:18.668Z,25.50
2023-01-19T18:19:45.666Z,27.77
2023-01-19T18:26:03.841Z,24.27
2023-01-19T18:28:33.049Z,24.98
2023-01-19T18:31:02.466Z,26.00
2023-01-19T18:33:29.155Z,27.95
2023-01-19T18:38:23.980Z,22.15
2023-01-19T18:41:16.337Z,21.38
2023-01-19T18:43:43.615Z,21.00
2023-01-19T18:46:10.965Z,25.63
2023-01-19T18:48:38.857Z,26.40
2023-01-19T18:51:10.772Z,22.27
2023-01-19T18:53:37.629Z,25.48
2023-01-19T18:56:04.848Z,24.55
2023-01-19T18:58:32.842Z,20.45
2023-01-19T19:01:01.122Z,20.42
2023-01-19T19:03:36.387Z,22.60
2023-01-19T19:06:03.818Z,32.53
2023-01-19T19:08:30.474Z,22.40
2023-01-19T19:13:23.718Z,23.60
2023-01-19T19:15:52.586Z,25.38
2023-01-19T19:18:19.446Z,24.33
2023-01-19T19:20:45.974Z,25.45
2023-01-19T19:25:38.968Z,22.92
2023-01-19T19:28:05.964Z,27.38
2023-01-19T19:30:34.649Z,21.02
2023-01-19T19:33:01.637Z,26.95
2023-01-19T19:35:28.283Z,28.15
2023-01-19T19:40:28.452Z,24.23
2023-01-19T19:42:56.972Z,23.17
2023-01-19T19:45:25.403Z,20.55
2023-01-19T19:47:52.040Z,22.23
2023-01-19T19:52:45.761Z,24.35
2023-01-19T19:55:24.252Z,20.05
2023-01-19T20:01:46.182Z,18.73
2023-01-19T20:05:31.631Z,20.58
2023-01-19T20:08:50.955Z,24.27
2023-01-19T20:33:07.004Z,25.60
2023-01-19T20:35:41.858Z,24.20
2023-01-19T20:44:57.017Z,22.98
2023-01-19T20:50:52.564Z,23.67
2023-01-19T20:53:34.757Z,21.63
2023-01-19T21:06:34.579Z,21.88
2023-01-19T21:09:11.934Z,25.52
2023-01-19T21:11:50.586Z,24.23
2023-01-19T21:15:07.171Z,17.77
2023-01-19T21:17:17.432Z,18.98
2023-01-19T21:27:10.285Z,27.92
2023-01-19T21:29:48.179Z,31.70
2023-01-19T21:35:31.702Z,22.75
2023-01-19T21:38:35.596Z,19.45
2023-01-19T21:41:14.979Z,19.63
2023-01-19T21:46:52.327Z,17.23
2023-01-19T21:49:23.639Z,17.77
2023-01-19T21:52:08.029Z,18.33
2023-01-19T21:54:37.990Z,22.20
2023-01-19T21:57:31.155Z,18.85
2023-01-19T22:10:32.865Z,21.17
2023-01-19T22:13:14.513Z,22.10
2023-01-19T22:15:47.444Z,22.33
2023-01-19T22:18:29.419Z,19.40
2023-01-19T22:20:56.528Z,25.02
2023-01-19T22:23:23.177Z,28.50
2023-01-19T22:28:16.647Z,26.73
2023-01-19T22:30:43.917Z,25.85
2023-01-19T22:33:12.729Z,27.40
2023-01-19T22:35:39.789Z,26.13
2023-01-19T22:38:06.732Z,23.83
2023-01-19T22:40:37.971Z,28.20
2023-01-19T22:43:04.519Z,27.67
2023-01-19T22:47:59.668Z,27.20
2023-01-19T22:50:26.286Z,27.88
2023-01-19T22:52:55.824Z,37.38
2023-01-19T22:55:22.346Z,30.40
2023-01-19T22:57:48.781Z,31.65
2023-01-19T23:00:15.679Z,31.00
2023-01-19T23:02:43.803Z,25.58
2023-01-19T23:05:10.323Z,33.03
2023-01-19T23:10:11.593Z,27.02
2023-01-19T23:15:08.579Z,28.60
2023-01-19T23:17:35.118Z,25.10
2023-01-19T23:22:28.113Z,26.63
2023-01-19T23:24:54.608Z,32.53
2023-01-19T23:27:37.611Z,30.60
2023-01-19T23:30:04.515Z,26.08
2023-01-19T23:32:31.053Z,30.85
2023-01-19T23:34:57.596Z,23.30
2023-01-19T23:37:24.154Z,30.70
2023-01-19T23:42:21.088Z,30.90
2023-01-19T23:44:47.568Z,26.83
2023-01-19T23:47:14.011Z,29.60
2023-01-19T23:49:40.538Z,32.90
2023-01-19T23:52:07.645Z,28.95
2023-01-19T23:54:34.204Z,31.35
2023-01-19T23:59:27.138Z,32.00
